sensor_id;sensor_type;location;lat;lon;timestamp;P1;durP1;ratioP1;P2;durP2;ratioP2
16837;SDS011;19510;54.486;9.046;2023-11-19T08:16:18;41.58;;;7.22;;
16837;SDS011;19510;54.486;9.046;2023-11-19T08:18:44;39.33;;;6.38;;
16837;SDS011;19510;54.486;9.046;2023-11-19T08:21:10;40.58;;;12.70;;
16837;SDS011;19510;54.486;9.046;2023-11-19T08:23:36;31.40;;;7.40;;
16837;SDS011;19510;54.486;9.046;2023-11-19T08:26:03;47.60;;;6.45;;
16837;SDS011;19510;54.486;9.046;2023-11-19T08:28:29;49.40;;;6.30;;
16837;SDS011;19510;54.486;9.046;2023-11-19T08:30:56;40.30;;;6.50;;
16837;SDS011;19510;54.486;9.046;2023-11-19T08:33:21;39.20;;;6.30;;
16837;SDS011;19510;54.486;9.046;2023-11-19T08:35:47;50.53;;;7.20;;
16837;SDS011;19510;54.486;9.046;2023-11-19T08:38:13;43.75;;;6.07;;
16837;SDS011;19510;54.486;9.046;2023-11-19T08:40:39;31.75;;;6.68;;
16837;SDS011;19510;54.486;9.046;2023-11-19T08:43:05;41.08;;;5.57;;
16837;SDS011;19510;54.486;9.046;2023-11-19T08:45:31;40.55;;;5.80;;
16837;SDS011;19510;54.486;9.046;2023-11-19T08:47:57;34.42;;;6.13;;
16837;SDS011;19510;54.486;9.046;2023-11-19T08:50:23;37.45;;;7.13;;
16837;SDS011;19510;54.486;9.046;2023-11-19T08:52:49;37.15;;;6.25;;
16837;SDS011;19510;54.486;9.046;2023-11-19T08:55:14;42.33;;;6.18;;
16837;SDS011;19510;54.486;9.046;2023-11-19T08:57:40;29.50;;;5.28;;
16837;SDS011;19510;54.486;9.046;2023-11-19T09:00:06;41.97;;;6.10;;
16837;SDS011;19510;54.486;9.046;2023-11-19T09:02:33;34.17;;;5.75;;
16837;SDS011;19510;54.486;9.046;2023-11-19T09:05:00;40.33;;;5.57;;
16837;SDS011;19510;54.486;9.046;2023-11-19T09:07:26;42.67;;;6.15;;
16837;SDS011;19510;54.486;9.046;2023-11-19T09:09:52;35.65;;;5.53;;
16837;SDS011;19510;54.486;9.046;2023-11-19T09:12:18;28.80;;;5.95;;
16837;SDS011;19510;54.486;9.046;2023-11-19T09:14:43;42.88;;;9.63;;
16837;SDS011;19510;54.486;9.046;2023-11-19T09:17:10;43.28;;;6.78;;
16837;SDS011;19510;54.486;9.046;2023-11-19T09:19:36;47.72;;;5.72;;
16837;SDS011;19510;54.486;9.046;2023-11-19T09:22:02;38.78;;;5.78;;
16837;SDS011;19510;54.486;9.046;2023-11-19T09:24:27;36.50;;;5.90;;
16837;SDS011;19510;54.486;9.046;2023-11-19T09:26:53;35.33;;;5.28;;
16837;SDS011;19510;54.486;9.046;2023-11-19T09:29:20;41.03;;;5.63;;
16837;SDS011;19510;54.486;9.046;2023-11-19T09:31:46;35.92;;;5.70;;
16837;SDS011;19510;54.486;9.046;2023-11-19T09:34:20;40.63;;;6.20;;
16837;SDS011;19510;54.486;9.046;2023-11-19T09:37:00;38.40;;;5.93;;
16837;SDS011;19510;54.486;9.046;2023-11-19T09:39:25;40.65;;;6.35;;
16837;SDS011;19510;54.486;9.046;2023-11-19T09:41:51;37.35;;;7.25;;
16837;SDS011;19510;54.486;9.046;2023-11-19T09:44:17;38.38;;;6.82;;
16837;SDS011;19510;54.486;9.046;2023-11-19T09:46:44;41.60;;;6.03;;
16837;SDS011;19510;54.486;9.046;2023-11-19T09:49:11;38.08;;;6.55;;
16837;SDS011;19510;54.486;9.046;2023-11-19T09:51:38;44.28;;;6.93;;
16837;SDS011;19510;54.486;9.046;2023-11-19T09:54:04;36.80;;;6.15;;
16837;SDS011;19510;54.486;9.046;2023-11-19T09:56:29;39.13;;;6.22;;
16837;SDS011;19510;54.486;9.046;2023-11-19T09:58:57;31.13;;;6.32;;
16837;SDS011;19510;54.486;9.046;2023-11-19T10:01:24;45.25;;;6.57;;
16837;SDS011;19510;54.486;9.046;2023-11-19T10:03:50;36.20;;;5.85;;
16837;SDS011;19510;54.486;9.046;2023-11-19T10:06:20;44.08;;;6.22;;
16837;SDS011;19510;54.486;9.046;2023-11-19T10:08:46;39.85;;;6.45;;
16837;SDS011;19510;54.486;9.046;2023-11-19T10:11:12;42.70;;;7.15;;
16837;SDS011;19510;54.486;9.046;2023-11-19T10:13:38;34.67;;;6.00;;
16837;SDS011;19510;54.486;9.046;2023-11-19T10:16:07;59.75;;;8.15;;
16837;SDS011;19510;54.486;9.046;2023-11-19T10:18:48;39.33;;;6.78;;
16837;SDS011;19510;54.486;9.046;2023-11-19T10:21:18;52.60;;;6.72;;
16837;SDS011;19510;54.486;9.046;2023-11-19T10:23:54;46.90;;;6.30;;
16837;SDS011;19510;54.486;9.046;2023-11-19T10:26:25;45.40;;;7.07;;
16837;SDS011;19510;54.486;9.046;2023-11-19T10:28:52;36.05;;;6.88;;
16837;SDS011;19510;54.486;9.046;2023-11-19T10:31:19;42.67;;;7.82;;
16837;SDS011;19510;54.486;9.046;2023-11-19T10:33:51;54.67;;;6.78;;
16837;SDS011;19510;54.486;9.046;2023-11-19T10:36:18;35.55;;;6.32;;
16837;SDS011;19510;54.486;9.046;2023-11-19T10:38:54;47.20;;;8.95;;
16837;SDS011;19510;54.486;9.046;2023-11-19T10:41:31;46.53;;;6.35;;
16837;SDS011;19510;54.486;9.046;2023-11-19T10:44:00;35.67;;;5.97;;
16837;SDS011;19510;54.486;9.046;2023-11-19T10:49:05;38.33;;;6.68;;
16837;SDS011;19510;54.486;9.046;2023-11-19T10:51:32;34.33;;;6.43;;
16837;SDS011;19510;54.486;9.046;2023-11-19T10:54:04;56.00;;;7.20;;
16837;SDS011;19510;54.486;9.046;2023-11-19T10:56:33;42.95;;;7.03;;
16837;SDS011;19510;54.486;9.046;2023-11-19T10:58:59;50.50;;;8.68;;
16837;SDS011;19510;54.486;9.046;2023-11-19T11:01:34;50.17;;;7.40;;
16837;SDS011;19510;54.486;9.046;2023-11-19T11:04:13;45.30;;;7.55;;
16837;SDS011;19510;54.486;9.046;2023-11-19T11:06:40;41.60;;;6.53;;
16837;SDS011;19510;54.486;9.046;2023-11-19T11:09:06;37.40;;;6.43;;
16837;SDS011;19510;54.486;9.046;2023-11-19T11:11:37;40.33;;;5.78;;
16837;SDS011;19510;54.486;9.046;2023-11-19T11:16:49;49.88;;;6.70;;
16837;SDS011;19510;54.486;9.046;2023-11-19T11:19:16;40.25;;;6.20;;
16837;SDS011;19510;54.486;9.046;2023-11-19T11:40:50;32.47;;;5.25;;
16837;SDS011;19510;54.486;9.046;2023-11-19T11:43:53;41.67;;;6.75;;
16837;SDS011;19510;54.486;9.046;2023-11-19T11:49:07;30.48;;;5.25;;
16837;SDS011;19510;54.486;9.046;2023-11-19T11:59:42;38.30;;;5.68;;
16837;SDS011;19510;54.486;9.046;2023-11-19T12:02:14;32.45;;;6.07;;
16837;SDS011;19510;54.486;9.046;2023-11-19T12:04:43;34.50;;;6.05;;
16837;SDS011;19510;54.486;9.046;2023-11-19T12:07:13;33.97;;;5.35;;
16837;SDS011;19510;54.486;9.046;2023-11-19T12:16:19;42.03;;;5.25;;
16837;SDS011;19510;54.486;9.046;2023-11-19T12:18:46;32.67;;;6.22;;
16837;SDS011;19510;54.486;9.046;2023-11-19T12:21:26;30.02;;;5.20;;
16837;SDS011;19510;54.486;9.046;2023-11-19T12:23:54;37.13;;;5.43;;
16837;SDS011;19510;54.486;9.046;2023-11-19T12:26:34;40.05;;;6.68;;
16837;SDS011;19510;54.486;9.046;2023-11-19T12:29:01;38.85;;;6.32;;
16837;SDS011;19510;54.486;9.046;2023-11-19T12:31:31;26.83;;;5.95;;
16837;SDS011;19510;54.486;9.046;2023-11-19T12:33:57;39.65;;;6.53;;
16837;SDS011;19510;54.486;9.046;2023-11-19T12:36:22;29.13;;;5.38;;
16837;SDS011;19510;54.486;9.046;2023-11-19T12:38:49;28.42;;;5.25;;
16837;SDS011;19510;54.486;9.046;2023-11-19T12:41:14;37.17;;;5.65;;
16837;SDS011;19510;54.486;9.046;2023-11-19T12:43:45;44.28;;;5.57;;
16837;SDS011;19510;54.486;9.046;2023-11-19T12:46:18;35.97;;;5.88;;
16837;SDS011;19510;54.486;9.046;2023-11-19T12:48:45;46.10;;;6.55;;
16837;SDS011;19510;54.486;9.046;2023-11-19T12:51:12;36.17;;;6.47;;
16837;SDS011;19510;54.486;9.046;2023-11-19T12:53:52;34.88;;;6.03;;
16837;SDS011;19510;54.486;9.046;2023-11-19T12:56:23;26.95;;;5.20;;
16837;SDS011;19510;54.486;9.046;2023-11-19T12:58:49;25.90;;;5.05;;
16837;SDS011;19510;54.486;9.046;2023-11-19T13:01:19;34.83;;;5.13;;
16837;SDS011;19510;54.486;9.046;2023-11-19T13:03:45;33.92;;;6.68;;
16837;SDS011;19510;54.486;9.046;2023-11-19T13:06:13;46.47;;;6.40;;
16837;SDS011;19510;54.486;9.046;2023-11-19T13:11:15;29.10;;;5.82;;
16837;SDS011;19510;54.486;9.046;2023-11-19T13:13:56;23.10;;;5.35;;
16837;SDS011;19510;54.486;9.046;2023-11-19T13:16:26;39.88;;;7.53;;
16837;SDS011;19510;54.486;9.046;2023-11-19T13:18:52;24.00;;;5.40;;
16837;SDS011;19510;54.486;9.046;2023-11-19T13:21:18;41.50;;;5.80;;
16837;SDS011;19510;54.486;9.046;2023-11-19T13:23:44;40.83;;;5.35;;
16837;SDS011;19510;54.486;9.046;2023-11-19T13:26:10;37.15;;;5.88;;
16837;SDS011;19510;54.486;9.046;2023-11-19T13:28:36;30.45;;;6.90;;
16837;SDS011;19510;54.486;9.046;2023-11-19T13:31:03;35.80;;;5.90;;
16837;SDS011;19510;54.486;9.046;2023-11-19T13:33:29;26.15;;;5.28;;
16837;SDS011;19510;54.486;9.046;2023-11-19T13:35:55;42.03;;;6.43;;
16837;SDS011;19510;54.486;9.046;2023-11-19T13:38:22;31.45;;;5.72;;
16837;SDS011;19510;54.486;9.046;2023-11-19T13:40:50;31.77;;;6.85;;
16837;SDS011;19510;54.486;9.046;2023-11-19T13:43:16;32.85;;;5.20;;
16837;SDS011;19510;54.486;9.046;2023-11-19T13:45:42;32.90;;;5.10;;
16837;SDS011;19510;54.486;9.046;2023-11-19T13:48:07;42.22;;;5.70;;
16837;SDS011;19510;54.486;9.046;2023-11-19T13:50:35;27.77;;;4.93;;
16837;SDS011;19510;54.486;9.046;2023-11-19T13:53:01;25.75;;;5.07;;
16837;SDS011;19510;54.486;9.046;2023-11-19T13:55:27;26.38;;;5.20;;
16837;SDS011;19510;54.486;9.046;2023-11-19T13:57:54;32.25;;;5.50;;
16837;SDS011;19510;54.486;9.046;2023-11-19T14:00:20;43.90;;;9.00;;
16837;SDS011;19510;54.486;9.046;2023-11-19T14:02:48;29.33;;;5.55;;
16837;SDS011;19510;54.486;9.046;2023-11-19T14:05:14;28.77;;;5.75;;
16837;SDS011;19510;54.486;9.046;2023-11-19T14:07:43;36.55;;;6.63;;
16837;SDS011;19510;54.486;9.046;2023-11-19T14:10:09;30.67;;;5.15;;
16837;SDS011;19510;54.486;9.046;2023-11-19T14:12:38;31.73;;;5.40;;
16837;SDS011;19510;54.486;9.046;2023-11-19T14:15:05;37.95;;;6.75;;
16837;SDS011;19510;54.486;9.046;2023-11-19T14:17:31;44.85;;;5.68;;
16837;SDS011;19510;54.486;9.046;2023-11-19T14:19:57;35.47;;;5.22;;
16837;SDS011;19510;54.486;9.046;2023-11-19T14:22:23;31.45;;;5.68;;
16837;SDS011;19510;54.486;9.046;2023-11-19T14:24:50;35.22;;;5.30;;
16837;SDS011;19510;54.486;9.046;2023-11-19T14:27:15;32.67;;;5.20;;
16837;SDS011;19510;54.486;9.046;2023-11-19T14:29:44;26.88;;;4.45;;
16837;SDS011;19510;54.486;9.046;2023-11-19T14:32:10;39.15;;;5.18;;
16837;SDS011;19510;54.486;9.046;2023-11-19T14:34:36;20.90;;;6.32;;
16837;SDS011;19510;54.486;9.046;2023-11-19T14:37:03;27.20;;;4.93;;
16837;SDS011;19510;54.486;9.046;2023-11-19T14:39:29;37.65;;;5.90;;
16837;SDS011;19510;54.486;9.046;2023-11-19T14:41:56;27.33;;;4.18;;
16837;SDS011;19510;54.486;9.046;2023-11-19T14:44:26;26.08;;;4.72;;
16837;SDS011;19510;54.486;9.046;2023-11-19T14:46:52;27.40;;;4.53;;
16837;SDS011;19510;54.486;9.046;2023-11-19T14:49:23;26.40;;;4.78;;
16837;SDS011;19510;54.486;9.046;2023-11-19T14:55:49;32.30;;;5.22;;
16837;SDS011;19510;54.486;9.046;2023-11-19T14:58:14;28.60;;;7.15;;
16837;SDS011;19510;54.486;9.046;2023-11-19T15:00:40;36.58;;;9.73;;
16837;SDS011;19510;54.486;9.046;2023-11-19T15:03:08;31.15;;;5.65;;
16837;SDS011;19510;54.486;9.046;2023-11-19T15:05:34;30.92;;;5.22;;
16837;SDS011;19510;54.486;9.046;2023-11-19T15:08:00;35.20;;;5.45;;
16837;SDS011;19510;54.486;9.046;2023-11-19T15:10:25;32.92;;;5.30;;
16837;SDS011;19510;54.486;9.046;2023-11-19T15:12:51;36.88;;;6.38;;
16837;SDS011;19510;54.486;9.046;2023-11-19T15:15:18;38.67;;;5.13;;
16837;SDS011;19510;54.486;9.046;2023-11-19T15:17:43;18.95;;;4.60;;
16837;SDS011;19510;54.486;9.046;2023-11-19T15:20:09;30.00;;;4.70;;
16837;SDS011;19510;54.486;9.046;2023-11-19T15:22:38;31.10;;;5.55;;
16837;SDS011;19510;54.486;9.046;2023-11-19T15:25:04;28.35;;;4.70;;
16837;SDS011;19510;54.486;9.046;2023-11-19T15:27:35;29.17;;;5.13;;
16837;SDS011;19510;54.486;9.046;2023-11-19T15:54:02;23.63;;;4.57;;
16837;SDS011;19510;54.486;9.046;2023-11-19T15:56:30;30.45;;;4.47;;
16837;SDS011;19510;54.486;9.046;2023-11-19T15:58:56;23.58;;;5.50;;
16837;SDS011;19510;54.486;9.046;2023-11-19T16:01:22;33.95;;;6.55;;
16837;SDS011;19510;54.486;9.046;2023-11-19T16:03:47;26.83;;;5.38;;
16837;SDS011;19510;54.486;9.046;2023-11-19T16:06:13;35.88;;;5.57;;
16837;SDS011;19510;54.486;9.046;2023-11-19T16:08:39;34.78;;;6.18;;
16837;SDS011;19510;54.486;9.046;2023-11-19T16:11:05;32.88;;;5.93;;
16837;SDS011;19510;54.486;9.046;2023-11-19T16:13:41;33.40;;;5.35;;
16837;SDS011;19510;54.486;9.046;2023-11-19T16:16:13;34.67;;;5.60;;
16837;SDS011;19510;54.486;9.046;2023-11-19T16:18:39;27.70;;;4.28;;
16837;SDS011;19510;54.486;9.046;2023-11-19T16:21:05;27.67;;;4.47;;
16837;SDS011;19510;54.486;9.046;2023-11-19T16:23:34;23.80;;;4.75;;
16837;SDS011;19510;54.486;9.046;2023-11-19T16:26:00;40.03;;;5.40;;
16837;SDS011;19510;54.486;9.046;2023-11-19T16:28:26;28.08;;;4.80;;
16837;SDS011;19510;54.486;9.046;2023-11-19T16:30:52;34.83;;;5.55;;
16837;SDS011;19510;54.486;9.046;2023-11-19T16:33:17;31.23;;;4.70;;
16837;SDS011;19510;54.486;9.046;2023-11-19T16:35:43;29.98;;;5.20;;
16837;SDS011;19510;54.486;9.046;2023-11-19T16:43:18;27.95;;;4.22;;
16837;SDS011;19510;54.486;9.046;2023-11-19T16:45:44;24.80;;;5.55;;
16837;SDS011;19510;54.486;9.046;2023-11-19T17:01:08;39.47;;;7.68;;
16837;SDS011;19510;54.486;9.046;2023-11-19T17:03:43;22.65;;;4.63;;
16837;SDS011;19510;54.486;9.046;2023-11-19T17:06:25;32.88;;;5.60;;
16837;SDS011;19510;54.486;9.046;2023-11-19T17:08:53;25.70;;;4.95;;
16837;SDS011;19510;54.486;9.046;2023-11-19T17:11:25;35.17;;;5.00;;
16837;SDS011;19510;54.486;9.046;2023-11-19T17:16:48;31.10;;;4.32;;
16837;SDS011;19510;54.486;9.046;2023-11-19T17:19:17;21.42;;;3.88;;
16837;SDS011;19510;54.486;9.046;2023-11-19T17:21:45;21.10;;;4.25;;
16837;SDS011;19510;54.486;9.046;2023-11-19T17:24:12;27.25;;;3.92;;
16837;SDS011;19510;54.486;9.046;2023-11-19T17:26:40;23.65;;;4.20;;
16837;SDS011;19510;54.486;9.046;2023-11-19T17:29:12;29.45;;;4.18;;
16837;SDS011;19510;54.486;9.046;2023-11-19T17:31:47;31.00;;;4.97;;
16837;SDS011;19510;54.486;9.046;2023-11-19T17:34:37;24.75;;;4.35;;
16837;SDS011;19510;54.486;9.046;2023-11-19T17:37:07;27.27;;;4.05;;
16837;SDS011;19510;54.486;9.046;2023-11-19T17:39:35;32.50;;;4.65;;
16837;SDS011;19510;54.486;9.046;2023-11-19T17:44:37;20.52;;;4.22;;
16837;SDS011;19510;54.486;9.046;2023-11-19T17:47:02;20.42;;;4.13;;
16837;SDS011;19510;54.486;9.046;2023-11-19T17:49:28;28.80;;;4.88;;
16837;SDS011;19510;54.486;9.046;2023-11-19T17:51:54;26.92;;;4.60;;
16837;SDS011;19510;54.486;9.046;2023-11-19T17:54:20;28.20;;;4.70;;
16837;SDS011;19510;54.486;9.046;2023-11-19T17:56:46;25.33;;;4.13;;
16837;SDS011;19510;54.486;9.046;2023-11-19T17:59:12;26.00;;;3.47;;
16837;SDS011;19510;54.486;9.046;2023-11-19T18:01:40;30.08;;;4.18;;
16837;SDS011;19510;54.486;9.046;2023-11-19T18:04:09;24.65;;;4.57;;
16837;SDS011;19510;54.486;9.046;2023-11-19T18:06:35;24.00;;;4.35;;
16837;SDS011;19510;54.486;9.046;2023-11-19T18:09:02;25.02;;;4.05;;
16837;SDS011;19510;54.486;9.046;2023-11-19T18:11:35;22.05;;;4.45;;
16837;SDS011;19510;54.486;9.046;2023-11-19T18:14:01;24.38;;;4.43;;
16837;SDS011;19510;54.486;9.046;2023-11-19T18:16:27;36.08;;;4.97;;
16837;SDS011;19510;54.486;9.046;2023-11-19T18:22:16;23.60;;;3.90;;
16837;SDS011;19510;54.486;9.046;2023-11-19T18:24:42;24.90;;;4.25;;
16837;SDS011;19510;54.486;9.046;2023-11-19T18:27:07;27.33;;;7.53;;
16837;SDS011;19510;54.486;9.046;2023-11-19T18:29:33;26.77;;;4.15;;
16837;SDS011;19510;54.486;9.046;2023-11-19T18:32:00;33.92;;;6.30;;
16837;SDS011;19510;54.486;9.046;2023-11-19T18:34:27;18.38;;;6.28;;
16837;SDS011;19510;54.486;9.046;2023-11-19T18:36:59;28.52;;;6.93;;
16837;SDS011;19510;54.486;9.046;2023-11-19T18:40:02;31.30;;;6.07;;
16837;SDS011;19510;54.486;9.046;2023-11-19T18:42:30;18.85;;;4.43;;
16837;SDS011;19510;54.486;9.046;2023-11-19T18:44:56;31.13;;;4.60;;
16837;SDS011;19510;54.486;9.046;2023-11-19T18:47:22;22.63;;;4.32;;
16837;SDS011;19510;54.486;9.046;2023-11-19T18:49:47;20.60;;;3.85;;
16837;SDS011;19510;54.486;9.046;2023-11-19T18:52:14;25.00;;;4.38;;
16837;SDS011;19510;54.486;9.046;2023-11-19T18:54:40;24.85;;;4.22;;
16837;SDS011;19510;54.486;9.046;2023-11-19T18:57:06;16.48;;;3.00;;
16837;SDS011;19510;54.486;9.046;2023-11-19T18:59:32;17.42;;;3.20;;
16837;SDS011;19510;54.486;9.046;2023-11-19T19:01:57;20.35;;;4.25;;
16837;SDS011;19510;54.486;9.046;2023-11-19T19:04:24;13.55;;;3.38;;
16837;SDS011;19510;54.486;9.046;2023-11-19T19:06:52;18.75;;;3.55;;
16837;SDS011;19510;54.486;9.046;2023-11-19T19:09:18;23.75;;;4.05;;
16837;SDS011;19510;54.486;9.046;2023-11-19T19:11:44;18.90;;;3.80;;
16837;SDS011;19510;54.486;9.046;2023-11-19T19:14:13;24.65;;;4.85;;
16837;SDS011;19510;54.486;9.046;2023-11-19T19:16:56;26.30;;;5.53;;
16837;SDS011;19510;54.486;9.046;2023-11-19T19:19:28;20.45;;;4.53;;
16837;SDS011;19510;54.486;9.046;2023-11-19T19:21:55;25.42;;;4.57;;
16837;SDS011;19510;54.486;9.046;2023-11-19T19:24:21;27.52;;;4.78;;
16837;SDS011;19510;54.486;9.046;2023-11-19T19:26:46;29.45;;;4.43;;
16837;SDS011;19510;54.486;9.046;2023-11-19T19:29:12;26.63;;;4.95;;
16837;SDS011;19510;54.486;9.046;2023-11-19T19:31:38;22.13;;;3.97;;
16837;SDS011;19510;54.486;9.046;2023-11-19T19:34:03;23.33;;;4.03;;
16837;SDS011;19510;54.486;9.046;2023-11-19T19:36:29;28.20;;;3.70;;
16837;SDS011;19510;54.486;9.046;2023-11-19T19:38:57;24.80;;;4.20;;
16837;SDS011;19510;54.486;9.046;2023-11-19T19:41:23;23.75;;;3.95;;
16837;SDS011;19510;54.486;9.046;2023-11-19T19:43:52;21.83;;;3.75;;
16837;SDS011;19510;54.486;9.046;2023-11-19T19:46:17;24.83;;;4.40;;
16837;SDS011;19510;54.486;9.046;2023-11-19T19:48:44;24.90;;;4.60;;
16837;SDS011;19510;54.486;9.046;2023-11-19T19:51:10;22.30;;;4.20;;
16837;SDS011;19510;54.486;9.046;2023-11-19T19:53:36;22.77;;;4.25;;
16837;SDS011;19510;54.486;9.046;2023-11-19T19:56:06;21.90;;;4.55;;
16837;SDS011;19510;54.486;9.046;2023-11-19T19:58:33;23.92;;;4.10;;
16837;SDS011;19510;54.486;9.046;2023-11-19T20:00:59;22.48;;;4.30;;
16837;SDS011;19510;54.486;9.046;2023-11-19T20:03:27;21.95;;;5.45;;
16837;SDS011;19510;54.486;9.046;2023-11-19T20:05:57;17.23;;;3.53;;
16837;SDS011;19510;54.486;9.046;2023-11-19T20:08:23;19.90;;;3.92;;
16837;SDS011;19510;54.486;9.046;2023-11-19T20:10:49;24.17;;;4.63;;
16837;SDS011;19510;54.486;9.046;2023-11-19T20:13:15;26.85;;;4.13;;
16837;SDS011;19510;54.486;9.046;2023-11-19T20:15:41;23.15;;;4.07;;
16837;SDS011;19510;54.486;9.046;2023-11-19T20:18:07;20.65;;;4.22;;
16837;SDS011;19510;54.486;9.046;2023-11-19T20:20:38;23.23;;;3.88;;
16837;SDS011;19510;54.486;9.046;2023-11-19T20:23:05;15.80;;;3.67;;
16837;SDS011;19510;54.486;9.046;2023-11-19T20:25:31;29.05;;;3.88;;
16837;SDS011;19510;54.486;9.046;2023-11-19T20:27:57;15.70;;;3.92;;
16837;SDS011;19510;54.486;9.046;2023-11-19T20:30:23;23.48;;;3.75;;
16837;SDS011;19510;54.486;9.046;2023-11-19T20:32:48;21.00;;;4.30;;
16837;SDS011;19510;54.486;9.046;2023-11-19T20:35:14;20.80;;;3.38;;
16837;SDS011;19510;54.486;9.046;2023-11-19T20:37:40;19.70;;;3.53;;
16837;SDS011;19510;54.486;9.046;2023-11-19T20:40:06;16.50;;;4.03;;
16837;SDS011;19510;54.486;9.046;2023-11-19T20:42:33;17.13;;;3.40;;
16837;SDS011;19510;54.486;9.046;2023-11-19T20:45:03;22.98;;;4.28;;
16837;SDS011;19510;54.486;9.046;2023-11-19T20:47:36;18.63;;;3.42;;
16837;SDS011;19510;54.486;9.046;2023-11-19T20:50:02;22.65;;;4.18;;
16837;SDS011;19510;54.486;9.046;2023-11-19T20:52:32;18.65;;;3.47;;
16837;SDS011;19510;54.486;9.046;2023-11-19T20:54:58;20.88;;;3.90;;
16837;SDS011;19510;54.486;9.046;2023-11-19T20:57:24;21.48;;;4.68;;
16837;SDS011;19510;54.486;9.046;2023-11-19T20:59:50;20.65;;;3.85;;
16837;SDS011;19510;54.486;9.046;2023-11-19T21:02:15;15.90;;;3.28;;
16837;SDS011;19510;54.486;9.046;2023-11-19T21:04:41;15.50;;;3.03;;
16837;SDS011;19510;54.486;9.046;2023-11-19T21:07:08;21.10;;;3.17;;
16837;SDS011;19510;54.486;9.046;2023-11-19T21:09:34;17.63;;;3.50;;
16837;SDS011;19510;54.486;9.046;2023-11-19T21:12:00;22.52;;;3.78;;
16837;SDS011;19510;54.486;9.046;2023-11-19T21:14:28;18.15;;;3.58;;
16837;SDS011;19510;54.486;9.046;2023-11-19T21:16:54;17.58;;;2.90;;
16837;SDS011;19510;54.486;9.046;2023-11-19T21:19:20;20.92;;;3.65;;
16837;SDS011;19510;54.486;9.046;2023-11-19T21:21:46;15.68;;;3.28;;
16837;SDS011;19510;54.486;9.046;2023-11-19T21:24:12;17.58;;;3.85;;
16837;SDS011;19510;54.486;9.046;2023-11-19T21:26:37;12.82;;;3.50;;
16837;SDS011;19510;54.486;9.046;2023-11-19T21:29:03;14.57;;;2.58;;
16837;SDS011;19510;54.486;9.046;2023-11-19T21:31:30;21.95;;;3.92;;
16837;SDS011;19510;54.486;9.046;2023-11-19T21:33:56;20.58;;;2.95;;
16837;SDS011;19510;54.486;9.046;2023-11-19T21:36:22;14.80;;;3.47;;
16837;SDS011;19510;54.486;9.046;2023-11-19T21:38:49;15.55;;;3.05;;
16837;SDS011;19510;54.486;9.046;2023-11-19T21:41:15;11.68;;;2.80;;
16837;SDS011;19510;54.486;9.046;2023-11-19T21:43:40;14.50;;;2.72;;
16837;SDS011;19510;54.486;9.046;2023-11-19T21:46:06;13.15;;;2.72;;
16837;SDS011;19510;54.486;9.046;2023-11-19T21:48:32;14.98;;;2.67;;
16837;SDS011;19510;54.486;9.046;2023-11-19T21:51:02;15.93;;;3.30;;
16837;SDS011;19510;54.486;9.046;2023-11-19T21:53:28;21.88;;;3.05;;
16837;SDS011;19510;54.486;9.046;2023-11-19T21:55:54;12.48;;;2.63;;
16837;SDS011;19510;54.486;9.046;2023-11-19T21:58:20;18.02;;;2.88;;
16837;SDS011;19510;54.486;9.046;2023-11-19T22:00:46;11.32;;;2.67;;
16837;SDS011;19510;54.486;9.046;2023-11-19T22:03:12;12.82;;;2.30;;
16837;SDS011;19510;54.486;9.046;2023-11-19T22:05:37;8.20;;;1.95;;
16837;SDS011;19510;54.486;9.046;2023-11-19T22:08:03;16.20;;;2.58;;
16837;SDS011;19510;54.486;9.046;2023-11-19T22:10:29;11.23;;;2.30;;
16837;SDS011;19510;54.486;9.046;2023-11-19T22:12:54;10.63;;;2.20;;
16837;SDS011;19510;54.486;9.046;2023-11-19T22:15:20;21.08;;;7.38;;
16837;SDS011;19510;54.486;9.046;2023-11-19T22:17:46;20.00;;;6.55;;
16837;SDS011;19510;54.486;9.046;2023-11-19T22:20:14;12.23;;;2.38;;
16837;SDS011;19510;54.486;9.046;2023-11-19T22:22:39;11.40;;;2.80;;
16837;SDS011;19510;54.486;9.046;2023-11-19T22:25:06;9.93;;;2.08;;
16837;SDS011;19510;54.486;9.046;2023-11-19T22:27:34;8.88;;;2.17;;
16837;SDS011;19510;54.486;9.046;2023-11-19T22:30:00;13.80;;;2.17;;
16837;SDS011;19510;54.486;9.046;2023-11-19T22:32:27;11.95;;;1.92;;
16837;SDS011;19510;54.486;9.046;2023-11-19T22:34:53;12.82;;;2.00;;
16837;SDS011;19510;54.486;9.046;2023-11-19T22:37:19;8.88;;;2.28;;
16837;SDS011;19510;54.486;9.046;2023-11-19T22:39:44;6.00;;;1.75;;
16837;SDS011;19510;54.486;9.046;2023-11-19T22:42:11;9.85;;;2.55;;
16837;SDS011;19510;54.486;9.046;2023-11-19T22:44:37;6.95;;;2.05;;
16837;SDS011;19510;54.486;9.046;2023-11-19T22:47:08;9.45;;;2.42;;
16837;SDS011;19510;54.486;9.046;2023-11-19T22:49:34;10.00;;;2.58;;
16837;SDS011;19510;54.486;9.046;2023-11-19T22:52:00;9.27;;;2.70;;
16837;SDS011;19510;54.486;9.046;2023-11-19T22:54:26;8.02;;;1.90;;
16837;SDS011;19510;54.486;9.046;2023-11-19T22:56:52;7.82;;;2.00;;
16837;SDS011;19510;54.486;9.046;2023-11-19T22:59:18;6.75;;;2.28;;
16837;SDS011;19510;54.486;9.046;2023-11-19T23:01:43;12.52;;;3.47;;
16837;SDS011;19510;54.486;9.046;2023-11-19T23:04:09;12.68;;;2.65;;
16837;SDS011;19510;54.486;9.046;2023-11-19T23:06:35;12.43;;;2.28;;
16837;SDS011;19510;54.486;9.046;2023-11-19T23:09:01;8.90;;;2.00;;
16837;SDS011;19510;54.486;9.046;2023-11-19T23:11:30;6.25;;;2.20;;
16837;SDS011;19510;54.486;9.046;2023-11-19T23:13:59;5.95;;;1.60;;
16837;SDS011;19510;54.486;9.046;2023-11-19T23:16:24;9.10;;;2.65;;
16837;SDS011;19510;54.486;9.046;2023-11-19T23:18:54;9.48;;;2.50;;
16837;SDS011;19510;54.486;9.046;2023-11-19T23:21:20;8.48;;;1.95;;
16837;SDS011;19510;54.486;9.046;2023-11-19T23:23:46;8.43;;;2.40;;
16837;SDS011;19510;54.486;9.046;2023-11-19T23:26:12;5.68;;;2.00;;
16837;SDS011;19510;54.486;9.046;2023-11-19T23:28:39;9.98;;;2.30;;
16837;SDS011;19510;54.486;9.046;2023-11-19T23:31:06;9.55;;;2.85;;
16837;SDS011;19510;54.486;9.046;2023-11-19T23:33:32;7.65;;;2.45;;
16837;SDS011;19510;54.486;9.046;2023-11-19T23:35:58;9.65;;;2.35;;
16837;SDS011;19510;54.486;9.046;2023-11-19T23:38:23;18.05;;;3.28;;
16837;SDS011;19510;54.486;9.046;2023-11-19T23:40:49;15.68;;;3.17;;
16837;SDS011;19510;54.486;9.046;2023-11-19T23:43:15;14.20;;;3.13;;
16837;SDS011;19510;54.486;9.046;2023-11-19T23:45:41;14.52;;;3.20;;
16837;SDS011;19510;54.486;9.046;2023-11-19T23:48:07;13.65;;;3.42;;
16837;SDS011;19510;54.486;9.046;2023-11-19T23:50:34;13.75;;;3.08;;
16837;SDS011;19510;54.486;9.046;2023-11-19T23:53:00;22.67;;;4.18;;
16837;SDS011;19510;54.486;9.046;2023-11-19T23:55:27;19.15;;;3.88;;
16837;SDS011;19510;54.486;9.046;2023-11-19T23:57:53;14.45;;;3.60;;
